Time;durP1;ratioP1;P1;durP2;ratioP2;P2;SDS_P1;SDS_P2;PMS_P1;PMS_P2;Temp;Humidity;BMP_temperature;BMP_pressure;BME280_temperature;BME280_humidity;BME280_pressure;Samples;Min_cycle;Max_cycle;Signal;HPM_P1;HPM_P2
2022/10/16 00:01:24;;;;;;;3.25;1.58;;;14.80;99.90;;;;;;5036440;28;20033;-74
2022/10/16 00:03:50;;;;;;;4.32;1.40;;;14.80;99.90;;;;;;5018540;28;20037;-74
2022/10/16 00:06:18;;;;;;;1.67;1.15;;;14.80;99.90;;;;;;5019349;28;20388;-74
2022/10/16 00:08:45;;;;;;;4.63;1.33;;;14.80;99.90;;;;;;5019107;28;20022;-74
2022/10/16 00:11:38;;;;;;;2.70;1.67;;;14.80;99.90;;;;;;5035970;28;20030;-74
2022/10/16 00:14:06;;;;;;;2.42;1.75;;;14.80;99.90;;;;;;5035845;28;20052;-74
2022/10/16 00:16:33;;;;;;;2.72;1.80;;;14.80;99.90;;;;;;5035904;28;20014;-75
2022/10/16 00:18:58;;;;;;;4.15;1.50;;;14.80;99.90;;;;;;5035847;28;20026;-75
2022/10/16 00:21:27;;;;;;;6.53;1.75;;;14.80;99.90;;;;;;5036146;28;20087;-74
2022/10/16 00:23:55;;;;;;;5.93;1.98;;;14.80;99.90;;;;;;5035940;28;20033;-74
2022/10/16 00:26:21;;;;;;;2.50;1.77;;;14.70;99.90;;;;;;5018008;28;20026;-75
2022/10/16 00:28:49;;;;;;;3.92;2.22;;;14.60;99.90;;;;;;5035982;28;20033;-75
2022/10/16 00:31:15;;;;;;;4.70;2.38;;;14.60;99.90;;;;;;5018879;28;20083;-74
2022/10/16 00:33:41;;;;;;;7.53;2.15;;;14.60;99.90;;;;;;5017662;28;20477;-74
2022/10/16 00:36:09;;;;;;;2.83;2.40;;;14.70;99.90;;;;;;5007871;28;20041;-74
2022/10/16 00:38:34;;;;;;;4.35;2.28;;;14.70;99.90;;;;;;4998877;28;20029;-75
2022/10/16 00:41:00;;;;;;;4.28;2.80;;;14.70;99.90;;;;;;5015733;28;20022;-75
2022/10/16 00:43:41;;;;;;;3.05;2.05;;;14.70;99.90;;;;;;5015916;28;20389;-74
2022/10/16 00:46:26;;;;;;;9.85;2.40;;;14.70;99.90;;;;;;4998121;28;20033;-75
2022/10/16 00:48:53;;;;;;;3.33;2.15;;;14.70;99.90;;;;;;4998968;28;20026;-76
2022/10/16 00:51:22;;;;;;;7.55;2.47;;;14.70;99.90;;;;;;4998123;28;20057;-75
2022/10/16 00:53:49;;;;;;;3.63;3.20;;;14.70;99.90;;;;;;4998484;28;20030;-74
2022/10/16 00:56:14;;;;;;;6.53;3.08;;;14.60;99.90;;;;;;4997891;28;20029;-75
2022/10/16 00:58:40;;;;;;;5.88;2.42;;;14.70;99.90;;;;;;4997824;28;20117;-75
2022/10/16 01:01:06;;;;;;;4.70;2.78;;;14.70;99.90;;;;;;5015414;28;20026;-74
2022/10/16 01:03:34;;;;;;;5.78;4.22;;;14.60;99.90;;;;;;5015122;28;20032;-75
2022/10/16 01:06:23;;;;;;;4.00;3.15;;;14.60;99.90;;;;;;5015747;28;20029;-74
2022/10/16 01:09:11;;;;;;;6.22;2.80;;;14.50;99.90;;;;;;4997525;28;20032;-74
2022/10/16 01:11:49;;;;;;;6.53;3.15;;;14.60;99.90;;;;;;5015109;28;20034;-74
2022/10/16 01:14:27;;;;;;;12.60;5.45;;;14.60;99.90;;;;;;4997420;28;20077;-74
2022/10/16 01:17:17;;;;;;;9.70;4.40;;;14.70;99.90;;;;;;4998319;28;20021;-75
2022/10/16 01:20:17;;;;;;;11.50;4.72;;;14.70;99.90;;;;;;4997393;28;20049;-75
2022/10/16 01:22:56;;;;;;;21.02;11.10;;;14.60;99.90;;;;;;5014908;28;20033;-75
2022/10/16 01:26:03;;;;;;;15.70;8.05;;;14.60;99.90;;;;;;5014831;28;20026;-75
2022/10/16 01:28:36;;;;;;;13.05;5.97;;;14.60;99.90;;;;;;5015063;28;20030;-74
2022/10/16 01:31:02;;;;;;;10.88;3.35;;;14.60;99.90;;;;;;4998047;28;20022;-75
2022/10/16 01:33:41;;;;;;;3.88;2.80;;;14.60;99.90;;;;;;4997015;28;20392;-74
2022/10/16 01:36:22;;;;;;;4.25;2.80;;;14.60;99.90;;;;;;4998988;28;20033;-74
2022/10/16 01:38:51;;;;;;;4.47;3.00;;;14.60;99.90;;;;;;4997699;28;20022;-75
2022/10/16 01:41:33;;;;;;;6.72;2.80;;;14.50;99.90;;;;;;5014821;28;20061;-75
2022/10/16 01:44:11;;;;;;;5.38;2.78;;;14.50;99.90;;;;;;5014538;28;20095;-74
2022/10/16 01:46:40;;;;;;;5.38;2.75;;;14.60;99.90;;;;;;4997027;28;20061;-74
2022/10/16 01:49:08;;;;;;;10.25;2.67;;;14.50;99.90;;;;;;4996854;28;20030;-74
2022/10/16 01:51:35;;;;;;;5.65;1.90;;;14.50;99.90;;;;;;4996870;28;20488;-74
2022/10/16 01:54:02;;;;;;;2.40;2.20;;;14.40;99.90;;;;;;4996933;28;20064;-74
2022/10/16 01:56:29;;;;;;;6.38;2.33;;;14.30;99.90;;;;;;4996216;28;20481;-74
2022/10/16 01:59:06;;;;;;;5.75;2.75;;;14.30;99.90;;;;;;5014233;28;20049;-79
2022/10/16 02:01:34;;;;;;;9.30;3.20;;;14.30;99.90;;;;;;4997442;28;20018;-74
2022/10/16 02:04:08;;;;;;;6.68;2.60;;;14.40;99.90;;;;;;4996977;28;20064;-74
2022/10/16 02:06:34;;;;;;;2.47;2.10;;;14.40;99.90;;;;;;4997084;28;20037;-74
2022/10/16 02:09:00;;;;;;;3.00;2.53;;;14.50;99.90;;;;;;4997391;28;20040;-74
2022/10/16 02:11:25;;;;;;;4.13;2.53;;;14.50;99.90;;;;;;4996480;28;20026;-75
2022/10/16 02:13:55;;;;;;;2.75;2.35;;;14.50;99.90;;;;;;4996259;28;20076;-74
2022/10/16 02:16:26;;;;;;;3.22;2.30;;;14.50;99.90;;;;;;5014144;28;20026;-74
2022/10/16 02:18:51;;;;;;;4.30;2.17;;;14.50;99.90;;;;;;4996366;28;20087;-75
2022/10/16 02:21:25;;;;;;;3.40;2.13;;;14.50;99.90;;;;;;4996475;28;20085;-74
2022/10/16 02:24:19;;;;;;;2.92;2.00;;;14.40;99.90;;;;;;4997107;28;20021;-75
2022/10/16 02:26:52;;;;;;;2.13;1.92;;;14.40;99.90;;;;;;4992353;28;20034;-75
2022/10/16 02:29:23;;;;;;;5.38;2.65;;;14.30;99.90;;;;;;4997051;28;20037;-75
2022/10/16 02:31:53;;;;;;;4.28;2.40;;;14.30;99.90;;;;;;4996276;28;20108;-75
2022/10/16 02:34:22;;;;;;;2.47;2.28;;;14.30;99.90;;;;;;4996205;28;20042;-74
2022/10/16 02:36:49;;;;;;;5.97;2.20;;;14.30;99.90;;;;;;5013797;28;20021;-74
2022/10/16 02:39:16;;;;;;;2.15;1.90;;;14.30;99.90;;;;;;4996986;28;20033;-75
2022/10/16 02:41:42;;;;;;;3.95;2.03;;;14.30;99.90;;;;;;5013676;28;20096;-75
2022/10/16 02:44:08;;;;;;;4.55;2.08;;;14.20;99.90;;;;;;4996360;28;20076;-75
2022/10/16 02:46:33;;;;;;;4.40;2.22;;;14.20;99.90;;;;;;4996145;28;20026;-75
2022/10/16 02:48:59;;;;;;;3.53;2.40;;;14.20;99.90;;;;;;5013680;28;20030;-75
2022/10/16 02:51:24;;;;;;;5.53;2.10;;;14.20;99.90;;;;;;4996052;28;20025;-75
2022/10/16 02:54:02;;;;;;;3.10;1.73;;;14.10;99.90;;;;;;4996160;28;20025;-74
2022/10/16 02:56:27;;;;;;;3.75;2.20;;;14.10;99.90;;;;;;4995951;28;20029;-74
2022/10/16 02:58:53;;;;;;;2.22;1.98;;;14.10;99.90;;;;;;4995981;28;20118;-74
2022/10/16 03:01:19;;;;;;;2.28;1.98;;;14.10;99.90;;;;;;5013698;28;20029;-74
2022/10/16 03:03:44;;;;;;;2.15;1.85;;;14.10;99.90;;;;;;4995890;28;20037;-74
2022/10/16 03:06:09;;;;;;;6.07;2.03;;;14.10;99.90;;;;;;4996394;28;20065;-73
2022/10/16 03:08:35;;;;;;;3.20;2.35;;;14.20;99.90;;;;;;4998782;28;20071;-73
2022/10/16 03:11:01;;;;;;;5.40;2.28;;;14.20;99.90;;;;;;4999822;28;20030;-72
2022/10/16 03:13:26;;;;;;;2.67;2.20;;;14.20;99.90;;;;;;5017282;28;20037;-72
2022/10/16 03:15:52;;;;;;;3.60;2.45;;;14.20;99.90;;;;;;4999606;28;20048;-72
2022/10/16 03:18:17;;;;;;;3.20;2.35;;;14.20;99.90;;;;;;4999506;28;20485;-72
2022/10/16 03:20:43;;;;;;;5.47;2.08;;;14.20;99.90;;;;;;4999777;28;20022;-72
2022/10/16 03:23:09;;;;;;;4.55;2.47;;;14.10;99.90;;;;;;4999631;28;20033;-72
2022/10/16 03:25:35;;;;;;;4.65;2.22;;;14.00;99.90;;;;;;4999395;28;20030;-73
2022/10/16 03:28:00;;;;;;;4.80;2.72;;;14.00;99.90;;;;;;5017340;28;20030;-72
2022/10/16 03:30:26;;;;;;;4.47;2.33;;;14.00;99.90;;;;;;4999679;28;20049;-73
2022/10/16 03:32:54;;;;;;;5.57;2.50;;;14.10;99.90;;;;;;5000271;28;20030;-72
2022/10/16 03:35:20;;;;;;;4.50;2.80;;;14.20;99.90;;;;;;4999542;28;20022;-72
2022/10/16 03:37:46;;;;;;;4.85;2.80;;;14.20;99.90;;;;;;5016863;28;20026;-72
2022/10/16 03:40:11;;;;;;;6.43;3.03;;;14.20;99.90;;;;;;4999256;28;20053;-72
2022/10/16 03:42:37;;;;;;;6.35;2.95;;;14.20;99.90;;;;;;5016778;28;20084;-73
2022/10/16 03:45:03;;;;;;;6.35;2.83;;;14.20;99.90;;;;;;4999797;28;20029;-73
2022/10/16 03:47:29;;;;;;;3.38;2.60;;;14.30;99.90;;;;;;4999134;28;20077;-73
2022/10/16 03:49:54;;;;;;;7.82;3.22;;;14.30;99.90;;;;;;4999203;28;20064;-73
2022/10/16 03:52:20;;;;;;;4.28;2.70;;;14.30;99.90;;;;;;4998959;28;20065;-72
2022/10/16 03:54:45;;;;;;;6.40;2.63;;;14.30;99.90;;;;;;5016471;28;20061;-72
2022/10/16 03:57:11;;;;;;;2.55;2.35;;;14.40;99.90;;;;;;4999838;28;20116;-72
2022/10/16 03:59:37;;;;;;;1.95;1.73;;;14.50;99.90;;;;;;4999255;28;20116;-72
2022/10/16 04:02:02;;;;;;;5.32;1.98;;;14.50;99.90;;;;;;4998791;28;20029;-73
2022/10/16 04:04:28;;;;;;;7.10;2.33;;;14.50;99.90;;;;;;4999527;28;20041;-74
2022/10/16 04:06:53;;;;;;;2.50;1.73;;;14.40;99.90;;;;;;5016615;28;20041;-74
2022/10/16 04:09:19;;;;;;;5.00;2.25;;;14.40;99.90;;;;;;5016356;28;20029;-74
2022/10/16 04:11:45;;;;;;;2.72;1.38;;;14.30;99.90;;;;;;5016225;28;20021;-75
2022/10/16 04:14:10;;;;;;;6.28;1.40;;;14.30;99.90;;;;;;4998755;28;20026;-75
2022/10/16 04:16:36;;;;;;;1.13;0.93;;;14.40;99.90;;;;;;4999384;28;20109;-73
2022/10/16 04:19:01;;;;;;;2.15;0.90;;;14.50;99.90;;;;;;4998423;28;20485;-75
2022/10/16 04:21:27;;;;;;;3.67;0.70;;;14.60;99.90;;;;;;4998056;28;20026;-74
2022/10/16 04:23:52;;;;;;;0.55;0.55;;;14.70;99.90;;;;;;4998359;28;20033;-74
2022/10/16 04:26:18;;;;;;;2.83;0.80;;;14.80;99.90;;;;;;4998389;28;20026;-74
2022/10/16 04:28:43;;;;;;;0.75;0.60;;;14.80;99.90;;;;;;5015902;28;20385;-74
2022/10/16 04:31:09;;;;;;;1.35;0.50;;;14.90;99.90;;;;;;4998326;28;20071;-74
2022/10/16 04:33:34;;;;;;;1.35;0.50;;;14.90;99.90;;;;;;4998146;28;20029;-74
2022/10/16 04:36:02;;;;;;;1.02;0.40;;;14.90;99.90;;;;;;4998085;28;20096;-74
2022/10/16 04:38:28;;;;;;;0.52;0.50;;;14.90;99.90;;;;;;4998374;28;20053;-74
2022/10/16 04:40:53;;;;;;;4.45;0.90;;;14.90;99.90;;;;;;5015672;28;20030;-74
2022/10/16 04:43:19;;;;;;;1.45;0.43;;;15.00;99.90;;;;;;4998064;28;20101;-74
2022/10/16 04:45:45;;;;;;;0.70;0.55;;;15.00;99.90;;;;;;4997826;28;20053;-74
2022/10/16 04:48:10;;;;;;;2.17;0.50;;;15.00;99.90;;;;;;4998026;28;20034;-74
2022/10/16 04:50:36;;;;;;;1.05;0.63;;;15.00;99.90;;;;;;4997884;28;20037;-74
2022/10/16 04:53:01;;;;;;;2.22;0.55;;;15.00;99.90;;;;;;4997887;28;20033;-73
2022/10/16 04:55:27;;;;;;;2.15;0.50;;;15.00;99.90;;;;;;5015659;28;20022;-73
2022/10/16 04:57:53;;;;;;;2.08;0.50;;;14.90;99.90;;;;;;4997751;28;20021;-73
2022/10/16 05:00:18;;;;;;;1.67;0.63;;;14.80;99.90;;;;;;4998795;28;20033;-72
2022/10/16 05:02:44;;;;;;;0.45;0.45;;;14.80;99.90;;;;;;4997633;28;20029;-73
2022/10/16 05:05:09;;;;;;;1.23;0.63;;;14.70;99.90;;;;;;5015138;28;20037;-73
2022/10/16 05:07:35;;;;;;;1.38;0.70;;;14.60;99.90;;;;;;4997626;28;20022;-74
2022/10/16 05:10:00;;;;;;;1.13;0.60;;;14.60;99.90;;;;;;4997905;28;20026;-74
2022/10/16 05:12:26;;;;;;;3.90;0.68;;;14.60;99.90;;;;;;4997509;28;20037;-74
2022/10/16 05:14:52;;;;;;;1.60;0.55;;;14.60;99.90;;;;;;4997440;28;20033;-74
2022/10/16 05:17:17;;;;;;;2.65;0.55;;;14.60;99.90;;;;;;4997369;28;20021;-74
2022/10/16 05:19:43;;;;;;;1.95;0.60;;;14.60;99.90;;;;;;4998456;28;20383;-73
2022/10/16 05:22:08;;;;;;;2.90;0.80;;;14.60;99.90;;;;;;4997215;28;20018;-73
2022/10/16 05:24:34;;;;;;;1.58;0.80;;;14.60;99.90;;;;;;4997170;28;20079;-73
2022/10/16 05:26:59;;;;;;;3.95;1.23;;;14.70;99.90;;;;;;4997520;28;20014;-73
2022/10/16 05:29:25;;;;;;;1.63;0.90;;;14.60;99.90;;;;;;4997185;28;20018;-74
2022/10/16 05:31:52;;;;;;;5.18;1.00;;;14.50;99.90;;;;;;5013671;28;20022;-74
2022/10/16 05:34:18;;;;;;;1.38;1.00;;;14.40;99.90;;;;;;5014747;28;20083;-73
2022/10/16 05:36:45;;;;;;;5.78;1.00;;;14.30;99.90;;;;;;4997022;28;20022;-73
2022/10/16 05:39:10;;;;;;;1.33;0.85;;;14.30;99.90;;;;;;5014536;28;20022;-74
2022/10/16 05:41:36;;;;;;;7.75;1.00;;;14.30;99.90;;;;;;5014527;28;20037;-74
2022/10/16 05:44:05;;;;;;;22.63;1.98;;;14.40;99.90;;;;;;5014377;28;20026;-74
2022/10/16 05:46:30;;;;;;;2.38;1.15;;;14.40;99.90;;;;;;4997005;28;20022;-73
2022/10/16 05:48:56;;;;;;;3.63;1.00;;;14.40;99.90;;;;;;4996821;28;20037;-74
2022/10/16 05:51:21;;;;;;;9.25;1.65;;;14.50;99.90;;;;;;5014491;28;20026;-74
2022/10/16 05:53:47;;;;;;;2.17;1.33;;;14.40;99.90;;;;;;4997130;28;20034;-74
2022/10/16 05:56:13;;;;;;;3.58;1.13;;;14.50;99.90;;;;;;5014355;28;20025;-73
2022/10/16 05:58:40;;;;;;;3.22;1.02;;;14.40;99.90;;;;;;4997412;28;20108;-73
2022/10/16 06:01:10;;;;;;;5.38;1.27;;;14.30;99.90;;;;;;4997449;28;20072;-73
2022/10/16 06:03:36;;;;;;;4.88;1.08;;;14.30;99.90;;;;;;4997571;28;20049;-74
2022/10/16 06:06:16;;;;;;;3.28;0.80;;;14.20;99.90;;;;;;5014104;28;20080;-73
2022/10/16 06:08:43;;;;;;;1.63;1.20;;;14.20;99.90;;;;;;5014484;28;20026;-75
2022/10/16 06:11:11;;;;;;;9.40;1.40;;;14.20;99.90;;;;;;4996621;28;20036;-75
2022/10/16 06:13:38;;;;;;;1.42;1.00;;;14.20;99.90;;;;;;4996390;28;20030;-75
2022/10/16 06:16:04;;;;;;;3.33;1.65;;;14.30;99.90;;;;;;4996337;28;20033;-74
2022/10/16 06:18:30;;;;;;;3.65;1.48;;;14.20;99.90;;;;;;5013894;28;20018;-73
2022/10/16 06:20:56;;;;;;;1.80;1.30;;;14.30;99.90;;;;;;5014244;28;20028;-74
2022/10/16 06:23:22;;;;;;;4.30;1.58;;;14.30;99.90;;;;;;4996605;28;20021;-74
2022/10/16 06:25:48;;;;;;;4.53;1.27;;;14.40;99.90;;;;;;4996190;28;20065;-72
2022/10/16 06:28:14;;;;;;;3.95;1.67;;;14.40;99.90;;;;;;4996251;28;20060;-73
2022/10/16 06:30:40;;;;;;;4.20;2.08;;;14.50;99.90;;;;;;4996142;28;20025;-74
2022/10/16 06:33:06;;;;;;;5.05;1.35;;;14.50;99.90;;;;;;5014110;28;20033;-74
2022/10/16 06:35:31;;;;;;;1.92;1.48;;;14.50;99.90;;;;;;5013899;28;20038;-72
2022/10/16 06:37:57;;;;;;;2.95;1.73;;;14.50;99.90;;;;;;4996485;28;20021;-73
2022/10/16 06:40:23;;;;;;;3.10;1.90;;;14.50;99.90;;;;;;5013746;28;20473;-73
2022/10/16 06:42:48;;;;;;;4.32;1.95;;;14.50;99.90;;;;;;5013294;28;20029;-73
2022/10/16 06:45:14;;;;;;;1.67;1.38;;;14.60;99.90;;;;;;4995930;28;20033;-73
2022/10/16 06:47:39;;;;;;;4.07;1.80;;;14.50;99.90;;;;;;4995896;28;20056;-73
2022/10/16 06:50:07;;;;;;;2.08;1.55;;;14.50;99.90;;;;;;4996241;28;20030;-73
2022/10/16 06:52:33;;;;;;;7.35;1.92;;;14.60;99.90;;;;;;4995867;28;20058;-73
2022/10/16 06:54:59;;;;;;;4.45;1.73;;;14.60;99.90;;;;;;4995921;28;20029;-74
2022/10/16 06:57:24;;;;;;;4.18;2.20;;;14.70;99.90;;;;;;4996474;28;20014;-74
2022/10/16 06:59:50;;;;;;;9.63;2.22;;;14.70;99.90;;;;;;4995892;28;20572;-74
2022/10/16 07:02:15;;;;;;;5.13;3.38;;;14.70;99.90;;;;;;4995916;28;20026;-74
2022/10/16 07:04:41;;;;;;;6.15;1.95;;;14.70;99.90;;;;;;4996143;28;20033;-74
2022/10/16 07:07:06;;;;;;;5.53;2.00;;;14.70;99.90;;;;;;4995972;28;20022;-74
2022/10/16 07:09:45;;;;;;;5.47;2.38;;;14.70;99.90;;;;;;4996711;28;20026;-73
2022/10/16 07:12:10;;;;;;;4.15;2.60;;;14.80;99.90;;;;;;5013403;28;20022;-72
2022/10/16 07:14:36;;;;;;;6.78;2.70;;;14.70;99.90;;;;;;4995694;28;20104;-73
2022/10/16 07:17:02;;;;;;;5.13;2.55;;;14.70;99.90;;;;;;5013568;28;20018;-73
2022/10/16 07:19:28;;;;;;;4.32;2.47;;;14.70;99.90;;;;;;4996059;28;20025;-72
2022/10/16 07:21:53;;;;;;;7.00;2.97;;;14.70;99.90;;;;;;4996641;28;20033;-73
2022/10/16 07:24:19;;;;;;;2.63;2.15;;;14.70;99.90;;;;;;4995606;28;20481;-74
2022/10/16 07:26:45;;;;;;;4.90;2.63;;;14.70;99.90;;;;;;4996027;28;20113;-74
2022/10/16 07:29:17;;;;;;;3.65;2.70;;;14.70;99.90;;;;;;4995653;28;20026;-73
2022/10/16 07:31:43;;;;;;;5.85;2.53;;;14.70;99.90;;;;;;4995726;28;20018;-72
2022/10/16 07:34:10;;;;;;;3.70;3.00;;;14.80;99.90;;;;;;4995715;28;20175;-73
2022/10/16 07:36:35;;;;;;;8.98;3.05;;;14.80;99.90;;;;;;4995649;28;20022;-73
2022/10/16 07:39:01;;;;;;;4.50;3.03;;;14.90;99.90;;;;;;4995930;28;20022;-74
2022/10/16 07:41:27;;;;;;;4.60;2.90;;;14.90;99.90;;;;;;5013446;28;20389;-73
2022/10/16 07:43:54;;;;;;;4.15;2.80;;;15.00;99.90;;;;;;5012993;28;20045;-73
2022/10/16 07:46:22;;;;;;;6.22;3.20;;;15.00;99.90;;;;;;4995507;28;20026;-73
2022/10/16 07:48:48;;;;;;;7.90;2.88;;;15.10;99.90;;;;;;4995367;28;20033;-72
2022/10/16 07:51:18;;;;;;;10.98;4.43;;;15.10;99.90;;;;;;4996326;28;20049;-72
2022/10/16 07:53:44;;;;;;;14.52;5.05;;;15.10;99.90;;;;;;4995381;28;20089;-75
2022/10/16 07:56:11;;;;;;;35.53;13.88;;;15.10;99.90;;;;;;4998051;28;20113;-75
2022/10/16 07:58:37;;;;;;;42.08;14.10;;;15.10;99.90;;;;;;5016535;28;20022;-75
2022/10/16 08:01:05;;;;;;;10.73;5.38;;;15.10;99.90;;;;;;5016993;28;20465;-75
2022/10/16 08:03:31;;;;;;;9.77;4.63;;;15.10;99.90;;;;;;5016369;28;20072;-75
2022/10/16 08:05:57;;;;;;;12.82;5.28;;;15.10;99.90;;;;;;5017141;28;20065;-75
2022/10/16 08:08:23;;;;;;;11.50;5.18;;;15.10;99.90;;;;;;4998757;28;20025;-76
2022/10/16 08:10:48;;;;;;;15.20;6.50;;;15.20;99.90;;;;;;5016256;28;20477;-75
2022/10/16 08:13:14;;;;;;;12.70;6.43;;;15.20;99.90;;;;;;5016069;28;20025;-75
2022/10/16 08:15:41;;;;;;;9.18;5.70;;;15.20;99.90;;;;;;5016675;28;20022;-74
2022/10/16 08:18:06;;;;;;;8.07;4.75;;;15.20;99.90;;;;;;5016050;28;20022;-74
2022/10/16 08:20:33;;;;;;;8.38;5.25;;;15.20;99.90;;;;;;4998815;28;20029;-75
2022/10/16 08:22:59;;;;;;;11.20;6.90;;;15.20;99.90;;;;;;5015973;28;20036;-74
2022/10/16 08:25:25;;;;;;;8.55;5.50;;;15.20;99.90;;;;;;4998732;28;20069;-74
2022/10/16 08:27:51;;;;;;;8.73;5.32;;;15.20;99.90;;;;;;5016012;28;20104;-74
2022/10/16 08:30:18;;;;;;;9.35;5.30;;;15.20;99.90;;;;;;4998352;28;20022;-74
2022/10/16 08:32:44;;;;;;;7.55;5.00;;;15.30;99.90;;;;;;4998562;28;20026;-75
2022/10/16 08:35:12;;;;;;;11.27;5.07;;;15.40;99.90;;;;;;5015693;28;20101;-75
2022/10/16 08:37:38;;;;;;;6.75;4.65;;;15.40;99.90;;;;;;4998671;28;20072;-75
2022/10/16 08:40:06;;;;;;;8.68;4.32;;;15.50;99.90;;;;;;5015657;28;20033;-74
2022/10/16 08:42:38;;;;;;;10.98;4.25;;;15.50;99.90;;;;;;5015551;28;20022;-75
2022/10/16 08:45:25;;;;;;;13.25;4.18;;;15.60;99.90;;;;;;4998676;28;20034;-75
2022/10/16 08:48:04;;;;;;;5.72;4.05;;;15.60;99.90;;;;;;5016647;28;20026;-76
2022/10/16 08:50:31;;;;;;;6.78;3.60;;;15.70;99.90;;;;;;4999458;28;20026;-76
2022/10/16 08:52:57;;;;;;;4.75;2.97;;;15.70;99.90;;;;;;5016325;28;20103;-76
2022/10/16 08:55:35;;;;;;;4.45;2.97;;;15.70;99.90;;;;;;4998723;28;20036;-76
2022/10/16 08:58:01;;;;;;;4.65;2.95;;;15.60;99.90;;;;;;4998821;28;20026;-76
2022/10/16 09:00:27;;;;;;;4.35;3.20;;;15.70;99.90;;;;;;4998594;28;20033;-76
2022/10/16 09:03:15;;;;;;;5.03;3.33;;;15.80;99.90;;;;;;4997994;28;20033;-76
2022/10/16 09:05:57;;;;;;;5.10;3.50;;;15.90;99.90;;;;;;5056208;23;20061;-71
2022/10/16 09:08:44;;;;;;;5.70;2.95;;;16.00;99.90;;;;;;5037825;28;20100;-71
2022/10/16 09:11:29;;;;;;;4.75;2.70;;;16.00;99.90;;;;;;5056144;28;20029;-71
2022/10/16 09:14:37;;;;;;;4.65;3.85;;;16.00;99.90;;;;;;5037414;28;20032;-71
2022/10/16 09:17:44;;;;;;;4.50;3.70;;;16.00;99.90;;;;;;5017898;28;20018;-71
2022/10/16 09:20:31;;;;;;;4.75;3.60;;;16.10;99.90;;;;;;5017228;28;20052;-71
2022/10/16 09:23:15;;;;;;;7.03;2.72;;;16.30;99.90;;;;;;5017128;28;20053;-72
2022/10/16 09:25:48;;;;;;;5.72;2.78;;;16.40;99.90;;;;;;5016961;28;20022;-71
2022/10/16 09:28:13;;;;;;;3.75;2.30;;;16.60;99.90;;;;;;5040266;28;20018;-71
2022/10/16 09:30:39;;;;;;;2.97;2.35;;;16.70;99.90;;;;;;5018741;28;20091;-70
2022/10/16 09:33:06;;;;;;;3.58;1.60;;;16.80;99.90;;;;;;5034430;28;20029;-70
2022/10/16 09:35:37;;;;;;;2.80;1.83;;;17.00;99.90;;;;;;5017158;28;20021;-70
2022/10/16 09:38:02;;;;;;;5.63;2.10;;;17.20;99.90;;;;;;5034809;28;20096;-70
2022/10/16 09:40:36;;;;;;;2.95;1.77;;;17.20;99.90;;;;;;5016666;28;20076;-70
2022/10/16 09:43:20;;;;;;;3.88;1.33;;;17.20;99.90;;;;;;5016641;28;20025;-70
2022/10/16 09:45:56;;;;;;;3.90;1.38;;;17.20;99.90;;;;;;5017558;28;20062;-70
2022/10/16 09:48:22;;;;;;;2.88;1.15;;;17.20;99.90;;;;;;5034405;28;20047;-70
2022/10/16 09:50:59;;;;;;;2.20;1.17;;;17.30;99.90;;;;;;5017084;28;20032;-70
2022/10/16 09:53:37;;;;;;;1.27;0.98;;;17.30;99.90;;;;;;5017164;28;20025;-70
2022/10/16 09:56:05;;;;;;;7.07;1.30;;;17.40;99.90;;;;;;5017666;28;20080;-70
2022/10/16 09:58:32;;;;;;;7.55;1.23;;;17.60;99.90;;;;;;5016988;28;20048;-70
2022/10/16 10:00:58;;;;;;;4.68;1.73;;;17.70;99.90;;;;;;5017493;28;20044;-70
2022/10/16 10:03:36;;;;;;;1.20;1.10;;;17.90;99.90;;;;;;5035816;28;20030;-70
2022/10/16 10:06:18;;;;;;;3.72;0.90;;;18.00;99.90;;;;;;5016935;28;20034;-70
2022/10/16 10:08:54;;;;;;;3.88;1.13;;;18.10;99.90;;;;;;5017183;28;20075;-70
2022/10/16 10:11:44;;;;;;;3.88;0.90;;;18.10;99.90;;;;;;5016979;28;20036;-70
2022/10/16 10:14:24;;;;;;;1.63;0.90;;;18.10;99.90;;;;;;5016516;28;20060;-70
2022/10/16 10:16:53;;;;;;;3.33;1.30;;;18.00;99.90;;;;;;5016136;28;20021;-70
2022/10/16 10:19:23;;;;;;;2.95;0.88;;;18.00;99.90;;;;;;5016642;28;20025;-70
2022/10/16 10:21:50;;;;;;;2.67;0.90;;;18.10;99.90;;;;;;5016405;28;20116;-70
2022/10/16 10:24:18;;;;;;;0.70;0.70;;;18.30;99.90;;;;;;5034259;28;20032;-70
2022/10/16 10:27:12;;;;;;;2.88;0.93;;;18.40;99.90;;;;;;5033544;28;20036;-70
2022/10/16 10:29:58;;;;;;;1.83;1.20;;;18.50;99.90;;;;;;5015935;28;20071;-70
2022/10/16 10:32:32;;;;;;;4.10;1.10;;;18.50;99.90;;;;;;5016860;28;20083;-70
2022/10/16 10:35:15;;;;;;;1.73;0.90;;;18.50;99.90;;;;;;5023222;28;20025;-70
2022/10/16 10:37:47;;;;;;;2.45;0.90;;;18.70;99.90;;;;;;5015876;28;20040;-70
2022/10/16 10:40:22;;;;;;;;;;;18.80;99.90;;;;;;5016828;28;20057;-70
2022/10/16 10:42:59;;;;;;;3.75;0.75;;;18.90;99.90;;;;;;5033880;28;19957;-70
2022/10/16 10:45:36;;;;;;;0.73;0.60;;;19.00;99.90;;;;;;5016275;28;20036;-70
2022/10/16 10:48:31;;;;;;;1.60;0.80;;;19.20;99.90;;;;;;5016272;28;20447;-70
2022/10/16 10:51:04;;;;;;;3.28;0.80;;;19.40;99.90;;;;;;5017086;28;20029;-70
2022/10/16 10:53:53;;;;;;;1.50;0.80;;;19.60;99.90;;;;;;5016010;28;20033;-70
2022/10/16 10:56:41;;;;;;;1.30;0.60;;;19.90;99.90;;;;;;5016005;28;20024;-70
2022/10/16 10:59:12;;;;;;;0.95;0.82;;;20.30;99.90;;;;;;5034169;28;20067;-70
2022/10/16 11:01:55;;;;;;;1.27;0.70;;;20.40;99.90;;;;;;5033569;28;20026;-70
2022/10/16 11:04:44;;;;;;;1.80;0.77;;;20.20;99.90;;;;;;5016030;28;20071;-70
2022/10/16 11:07:25;;;;;;;1.30;0.82;;;20.20;99.90;;;;;;5016130;28;20033;-70
2022/10/16 11:10:03;;;;;;;1.00;0.93;;;20.40;99.90;;;;;;5015744;28;20089;-70
2022/10/16 11:12:38;;;;;;;2.97;0.60;;;20.60;99.90;;;;;;5017481;28;20039;-70
2022/10/16 11:15:15;;;;;;;0.40;0.40;;;20.70;99.90;;;;;;5015941;28;20064;-70
2022/10/16 11:17:53;;;;;;;1.65;0.60;;;20.80;99.90;;;;;;5016170;28;20025;-70
2022/10/16 11:20:27;;;;;;;2.47;0.63;;;21.00;99.90;;;;;;5015962;28;20484;-70
2022/10/16 11:23:07;;;;;;;0.60;0.52;;;21.00;99.90;;;;;;5015976;28;20036;-70
2022/10/16 11:25:33;;;;;;;1.70;0.47;;;21.10;99.90;;;;;;5033507;28;20028;-72
2022/10/16 11:28:24;;;;;;;1.60;1.10;;;21.30;99.90;;;;;;5017932;28;20028;-72
2022/10/16 11:30:50;;;;;;;1.00;0.60;;;21.30;99.90;;;;;;5022529;28;20060;-72
2022/10/16 11:33:18;;;;;;;2.25;0.60;;;21.40;99.90;;;;;;5021835;28;20041;-72
2022/10/16 11:36:00;;;;;;;3.42;0.80;;;21.50;99.90;;;;;;5023012;28;20061;-72
2022/10/16 11:38:48;;;;;;;1.85;0.55;;;21.70;99.90;;;;;;5026658;28;20009;-72
2022/10/16 11:41:18;;;;;;;2.25;0.40;;;22.00;99.90;;;;;;5021467;28;20095;-72
2022/10/16 11:44:03;;;;;;;6.20;0.82;;;22.00;99.90;;;;;;5020749;28;20104;-72
2022/10/16 11:46:32;;;;;;;1.90;0.50;;;22.00;99.90;;;;;;5020222;28;20043;-72
2022/10/16 11:49:09;;;;;;;0.73;0.50;;;22.10;99.90;;;;;;5038544;28;20022;-72
2022/10/16 11:51:51;;;;;;;2.30;0.82;;;22.10;99.90;;;;;;5021633;28;20025;-72
2022/10/16 11:54:22;;;;;;;0.45;0.40;;;22.00;99.90;;;;;;5038606;28;20052;-72
2022/10/16 11:56:52;;;;;;;0.52;0.30;;;22.10;99.90;;;;;;5020598;28;20040;-72
2022/10/16 11:59:30;;;;;;;1.05;0.40;;;22.10;99.90;;;;;;5038345;28;20036;-72
2022/10/16 12:02:33;;;;;;;2.05;0.60;;;21.90;99.90;;;;;;5020511;28;20175;-72
2022/10/16 12:05:19;;;;;;;1.50;0.60;;;21.80;99.90;;;;;;5020911;28;20056;-72
2022/10/16 12:08:10;;;;;;;0.30;0.30;;;21.80;99.90;;;;;;5018819;28;20112;-71
2022/10/16 12:10:38;;;;;;;0.32;0.32;;;22.20;99.90;;;;;;5018203;28;20057;-71
2022/10/16 12:13:27;;;;;;;2.08;0.90;;;22.70;99.90;;;;;;5018159;28;20557;-71
2022/10/16 12:16:24;;;;;;;1.33;0.40;;;22.70;99.90;;;;;;5006759;28;20034;-71
2022/10/16 12:19:09;;;;;;;0.55;0.35;;;22.90;99.90;;;;;;5017981;28;20030;-71
2022/10/16 12:21:35;;;;;;;0.60;0.52;;;22.80;99.90;;;;;;5018969;28;20026;-71
2022/10/16 12:24:04;;;;;;;3.50;0.90;;;22.90;99.90;;;;;;5019269;28;20112;-71
2022/10/16 12:26:37;;;;;;;2.65;0.63;;;23.00;99.90;;;;;;5018066;28;20477;-71
2022/10/16 12:29:17;;;;;;;1.88;0.82;;;23.30;99.90;;;;;;5035908;28;20075;-71
2022/10/16 12:31:46;;;;;;;1.17;0.90;;;23.60;99.90;;;;;;5019667;28;20060;-72
2022/10/16 12:34:34;;;;;;;2.08;0.82;;;23.60;99.90;;;;;;5019204;28;20111;-70
2022/10/16 12:37:19;;;;;;;1.27;0.65;;;23.60;99.90;;;;;;5018264;28;20112;-70
2022/10/16 12:39:44;;;;;;;1.10;0.60;;;23.60;99.90;;;;;;5035622;28;20083;-71
2022/10/16 12:42:29;;;;;;;1.48;0.57;;;23.50;99.90;;;;;;5018010;28;20022;-71
2022/10/16 12:44:55;;;;;;;3.08;0.70;;;23.10;99.90;;;;;;5026063;28;20124;-71
2022/10/16 12:47:33;;;;;;;1.42;0.45;;;22.80;99.90;;;;;;5017745;28;20030;-71
2022/10/16 12:49:59;;;;;;;0.55;0.50;;;22.50;99.90;;;;;;5017965;28;20064;-69
2022/10/16 12:52:33;;;;;;;0.82;0.22;;;22.30;99.90;;;;;;5036488;28;20061;-71
2022/10/16 12:55:00;;;;;;;0.88;0.38;;;22.00;99.90;;;;;;5017508;28;20029;-70
2022/10/16 12:57:28;;;;;;;0.40;0.30;;;21.90;99.90;;;;;;5018335;28;20104;-71
2022/10/16 13:00:33;;;;;;;2.88;0.60;;;21.80;99.90;;;;;;5017927;28;20025;-71
2022/10/16 13:03:24;;;;;;;0.35;0.35;;;21.70;99.90;;;;;;5003732;28;20040;-70
2022/10/16 13:06:20;;;;;;;1.55;0.40;;;21.60;99.90;;;;;;5017502;28;20038;-70